»·PEaware :: N2494V KLAX-KSNA

N2494V :: KLAX-KSNA

FLIGHT INFORMATION

Flight Status: Arrived
Operator: Privately registered:
United States
More flights under this callsign
Pilot: Sally S. (18014)
Aircraft: Unknown
(DA62)
More flights by this aircraft type
Origin: KLAX Los Angeles Intl
United States
Destination: KSNA John Wayne-Orange Co
United States
More flights between these airports :: More routes between these airports
Route: SLI8 SLI
File this flight plan on PilotEdge
Remarks: I6 RATING
Altitude:
(Current/Filed)
4,000ft
Speed:
(Current/Filed)
165kts
Departed: 15-May-18 11:49 AM
Arrived: 15-May-18 12:25 PM
Distance/Time
Traveled:
31nm/0:36
Distance/Time
To Go:
Arrived

Flight Plot

Page will automatically refresh every two minutes.

Flight plan parsing failed; only flown route is shown


Map Options




Map Legend


Flown Route
Filed Route
Departure Airport
Arrival Airport
Navaid (VOR, NDB)
Fix

Horizontal Profiles

Position Reports

Time Latitude Longitude Heading Altitude Ground
Speed
15-May-18 11:11 33.933338 -118.399848 78 129ft 0kts
15-May-18 11:12 33.933338 -118.399848 78 129ft 0kts
15-May-18 11:13 33.933338 -118.399848 78 129ft 0kts
15-May-18 11:14 33.933338 -118.399848 78 129ft 0kts
15-May-18 11:15 33.933338 -118.399848 78 129ft 0kts
15-May-18 11:16 33.933338 -118.399848 78 129ft 0kts
15-May-18 11:17 33.933338 -118.399848 78 129ft 0kts
15-May-18 11:18 33.933338 -118.399848 78 129ft 0kts
15-May-18 11:19 33.933338 -118.399848 78 129ft 0kts
15-May-18 11:20 33.933338 -118.399848 78 129ft 0kts
15-May-18 11:21 33.933338 -118.399848 78 129ft 0kts
15-May-18 11:22 33.933338 -118.399848 78 129ft 0kts
15-May-18 11:23 33.933338 -118.399848 78 129ft 0kts
15-May-18 11:24 33.933338 -118.399848 78 129ft 0kts
15-May-18 11:25 33.933338 -118.399848 78 129ft 0kts
15-May-18 11:26 33.933338 -118.399848 78 129ft 0kts
15-May-18 11:27 33.933338 -118.399848 78 129ft 0kts
15-May-18 11:28 33.933338 -118.399848 78 129ft 0kts
15-May-18 11:29 33.933338 -118.399848 78 129ft 0kts
15-May-18 11:30 33.933338 -118.399848 78 129ft 0kts
15-May-18 11:31 33.933338 -118.399848 78 129ft 0kts
15-May-18 11:32 33.933338 -118.399848 78 129ft 0kts
15-May-18 11:33 33.933338 -118.399848 78 129ft 0kts
15-May-18 11:34 33.933338 -118.399848 78 129ft 0kts
15-May-18 11:35 33.933338 -118.399848 78 129ft 0kts
15-May-18 11:36 33.933338 -118.399848 78 129ft 0kts
15-May-18 11:37 33.933338 -118.399848 78 129ft 0kts
15-May-18 11:38 33.933338 -118.399848 78 129ft 0kts
15-May-18 11:39 33.933338 -118.399848 78 129ft 0kts
15-May-18 11:40 33.933338 -118.399848 78 129ft 0kts
15-May-18 11:41 33.933338 -118.399848 78 129ft 0kts
15-May-18 11:42 33.933338 -118.399848 78 129ft 0kts
15-May-18 11:43 33.933338 -118.399848 78 129ft 0kts
15-May-18 11:44 33.933338 -118.399848 78 129ft 0kts
15-May-18 11:45 33.933339 -118.399826 87 129ft 2kts
15-May-18 11:46 33.934865 -118.395080 83 129ft 26kts
15-May-18 11:47 33.935838 -118.385740 83 129ft 26kts
15-May-18 11:48 33.936475 -118.382926 358 129ft 0kts
15-May-18 11:49 33.936845 -118.388140 263 129ft 85kts
15-May-18 11:50 33.933031 -118.423450 263 1242ft 113kts
15-May-18 11:51 33.913382 -118.450219 213 2561ft 115kts
15-May-18 11:52 33.886445 -118.470809 214 3877ft 113kts
15-May-18 11:53 33.854014 -118.486419 151 4009ft 155kts
15-May-18 11:54 33.819515 -118.452322 142 3999ft 163kts
15-May-18 11:55 33.785261 -118.417441 142 3999ft 163kts
15-May-18 11:56 33.751020 -118.382412 141 3999ft 162kts
15-May-18 11:57 33.716957 -118.347518 141 3999ft 162kts
15-May-18 11:58 33.682915 -118.312638 141 3999ft 161kts
15-May-18 11:59 33.648897 -118.277775 141 4001ft 161kts
15-May-18 12:00 33.617534 -118.240952 102 4003ft 164kts
15-May-18 12:01 33.647697 -118.204428 39 4003ft 169kts
15-May-18 12:02 33.682356 -118.167199 43 4005ft 168kts
15-May-18 12:03 33.716508 -118.129264 43 4007ft 168kts
15-May-18 12:04 33.749390 -118.092690 44 4008ft 168kts
15-May-18 12:05 33.781915 -118.056412 47 4004ft 168kts
15-May-18 12:06 33.801896 -118.008926 66 4005ft 166kts
15-May-18 12:07 33.821241 -117.960792 65 4003ft 167kts
15-May-18 12:08 33.841240 -117.911017 65 4000ft 168kts
15-May-18 12:09 33.860841 -117.862168 65 3998ft 169kts
15-May-18 12:10 33.880853 -117.812218 65 3996ft 169kts
15-May-18 12:11 33.900886 -117.762145 65 3996ft 170kts
15-May-18 12:12 33.921862 -117.711343 47 3989ft 171kts
15-May-18 12:13 33.963692 -117.683312 25 3763ft 177kts
15-May-18 12:14 34.008032 -117.667805 324 3508ft 170kts
15-May-18 12:15 33.997917 -117.707000 189 3507ft 163kts
15-May-18 12:16 33.953410 -117.711677 185 3499ft 161kts
15-May-18 12:17 33.909943 -117.717732 213 3496ft 156kts
15-May-18 12:18 33.872544 -117.743520 209 3374ft 161kts
15-May-18 12:19 33.833573 -117.768320 209 3316ft 151kts
15-May-18 12:20 33.794920 -117.793034 208 2589ft 165kts
15-May-18 12:21 33.754849 -117.818527 207 1713ft 164kts
15-May-18 12:22 33.720613 -117.840295 207 939ft 114kts
15-May-18 12:23 33.696550 -117.855589 207 427ft 90kts
15-May-18 12:24 33.676675 -117.868220 209 60ft 63kts
15-May-18 12:25 33.675865 -117.870158 250 60ft 14kts

Navigation Log

Ident Type
Flight plan parsing failed, navigation log unavailable